sensor_id;sensor_type;location;lat;lon;timestamp;pressure;altitude;pressure_sealevel;temperature;humidity
66486;BME280;53303;47.476;8.084;2023-07-24T00:00:35;94782.34;;;23.93;47.79
66486;BME280;53303;47.476;8.084;2023-07-24T00:03:02;94861.72;;;24.00;47.96
66486;BME280;53303;47.476;8.084;2023-07-24T00:05:27;94937.69;;;24.00;47.91
66486;BME280;53303;47.476;8.084;2023-07-24T00:07:52;94945.31;;;24.00;47.67
66486;BME280;53303;47.476;8.084;2023-07-24T00:10:18;94872.84;;;24.00;47.76
66486;BME280;53303;47.476;8.084;2023-07-24T00:12:43;94873.22;;;23.96;47.75
66486;BME280;53303;47.476;8.084;2023-07-24T00:15:09;94871.34;;;23.99;47.94
66486;BME280;53303;47.476;8.084;2023-07-24T00:17:34;94787.38;;;23.94;48.12
66486;BME280;53303;47.476;8.084;2023-07-24T00:20:03;94784.22;;;23.98;48.16
66486;BME280;53303;47.476;8.084;2023-07-24T00:22:29;94723.47;;;23.97;48.24
66486;BME280;53303;47.476;8.084;2023-07-24T00:24:54;94708.81;;;23.96;48.06
66486;BME280;53303;47.476;8.084;2023-07-24T00:27:19;94705.47;;;23.98;48.08
66486;BME280;53303;47.476;8.084;2023-07-24T00:29:45;94689.13;;;23.94;48.08
66486;BME280;53303;47.476;8.084;2023-07-24T00:32:11;94687.25;;;23.97;48.26
66486;BME280;53303;47.476;8.084;2023-07-24T00:34:36;94696.34;;;23.97;48.00
66486;BME280;53303;47.476;8.084;2023-07-24T00:37:03;94708.81;;;23.96;47.89
66486;BME280;53303;47.476;8.084;2023-07-24T00:39:30;94703.03;;;23.94;47.73
66486;BME280;53303;47.476;8.084;2023-07-24T00:42:01;94703.97;;;23.97;48.14
66486;BME280;53303;47.476;8.084;2023-07-24T00:44:27;94700.63;;;23.98;48.23
66486;BME280;53303;47.476;8.084;2023-07-24T00:46:52;94700.63;;;23.98;48.16
66486;BME280;53303;47.476;8.084;2023-07-24T00:49:19;94713.84;;;23.98;48.44
66486;BME280;53303;47.476;8.084;2023-07-24T00:51:45;94717.34;;;23.98;48.28
66486;BME280;53303;47.476;8.084;2023-07-24T00:54:11;94716.97;;;23.94;48.51
66486;BME280;53303;47.476;8.084;2023-07-24T00:56:39;94715.84;;;23.97;48.72
66486;BME280;53303;47.476;8.084;2023-07-24T00:59:04;94704.50;;;23.87;48.51
66486;BME280;53303;47.476;8.084;2023-07-24T01:01:32;94710.28;;;23.97;48.80
66486;BME280;53303;47.476;8.084;2023-07-24T01:03:57;94700.03;;;23.92;48.64
66486;BME280;53303;47.476;8.084;2023-07-24T01:06:23;94709.53;;;23.97;48.67
66486;BME280;53303;47.476;8.084;2023-07-24T01:08:49;94712.34;;;23.97;49.00
66486;BME280;53303;47.476;8.084;2023-07-24T01:11:25;94707.13;;;23.93;48.81
66486;BME280;53303;47.476;8.084;2023-07-24T01:13:57;94682.03;;;23.93;48.84
66486;BME280;53303;47.476;8.084;2023-07-24T01:16:33;94682.22;;;23.87;49.11
66486;BME280;53303;47.476;8.084;2023-07-24T01:19:01;94694.88;;;23.96;49.23
66486;BME280;53303;47.476;8.084;2023-07-24T01:21:44;94665.59;;;23.74;49.21
66486;BME280;53303;47.476;8.084;2023-07-24T01:26:55;94686.88;;;23.92;49.47
66486;BME280;53303;47.476;8.084;2023-07-24T01:29:23;94692.09;;;23.96;49.62
66486;BME280;53303;47.476;8.084;2023-07-24T01:31:51;94684.63;;;23.91;49.54
66486;BME280;53303;47.476;8.084;2023-07-24T01:34:19;94688.91;;;23.92;49.47
66486;BME280;53303;47.476;8.084;2023-07-24T01:36:44;94679.44;;;23.95;49.59
66486;BME280;53303;47.476;8.084;2023-07-24T01:39:10;94662.34;;;23.83;49.55
66486;BME280;53303;47.476;8.084;2023-07-24T01:41:36;94676.28;;;23.91;49.73
66486;BME280;53303;47.476;8.084;2023-07-24T01:44:01;94685.75;;;23.95;49.80
66486;BME280;53303;47.476;8.084;2023-07-24T01:46:27;94658.78;;;23.83;49.68
66486;BME280;53303;47.476;8.084;2023-07-24T01:48:54;94685.03;;;23.95;49.70
66486;BME280;53303;47.476;8.084;2023-07-24T01:51:22;94676.28;;;23.91;49.57
66486;BME280;53303;47.476;8.084;2023-07-24T01:53:47;94670.72;;;23.91;49.76
66486;BME280;53303;47.476;8.084;2023-07-24T01:56:15;94679.44;;;23.95;49.82
66486;BME280;53303;47.476;8.084;2023-07-24T01:58:40;94672.41;;;23.94;49.97
66486;BME280;53303;47.476;8.084;2023-07-24T02:01:06;94656.78;;;23.91;49.71
66486;BME280;53303;47.476;8.084;2023-07-24T02:03:31;94656.41;;;23.94;49.70
66486;BME280;53303;47.476;8.084;2023-07-24T02:05:57;94648.59;;;23.93;49.86
66486;BME280;53303;47.476;8.084;2023-07-24T02:08:23;94635.59;;;23.95;50.06
66486;BME280;53303;47.476;8.084;2023-07-24T02:10:49;94627.06;;;23.93;49.71
66486;BME280;53303;47.476;8.084;2023-07-24T02:13:17;94625.03;;;23.94;49.86
66486;BME280;53303;47.476;8.084;2023-07-24T02:15:43;94630.59;;;23.94;49.93
66486;BME280;53303;47.476;8.084;2023-07-24T02:18:08;94636.72;;;23.92;49.65
66486;BME280;53303;47.476;8.084;2023-07-24T02:20:36;94629.47;;;23.89;49.83
66486;BME280;53303;47.476;8.084;2023-07-24T02:23:01;94637.66;;;23.95;49.58
66486;BME280;53303;47.476;8.084;2023-07-24T02:25:27;94641.75;;;23.94;49.64
66486;BME280;53303;47.476;8.084;2023-07-24T02:27:52;94638.19;;;23.93;49.68
66486;BME280;53303;47.476;8.084;2023-07-24T02:30:17;94631.16;;;23.92;49.69
66486;BME280;53303;47.476;8.084;2023-07-24T02:32:43;94617.75;;;23.83;49.61
66486;BME280;53303;47.476;8.084;2023-07-24T02:35:10;94626.13;;;23.91;49.51
66486;BME280;53303;47.476;8.084;2023-07-24T02:37:36;94638.19;;;23.93;49.64
66486;BME280;53303;47.476;8.084;2023-07-24T02:40:04;94637.81;;;23.89;49.54
66486;BME280;53303;47.476;8.084;2023-07-24T02:42:29;94645.09;;;23.92;49.53
66486;BME280;53303;47.476;8.084;2023-07-24T02:44:55;94650.66;;;23.92;49.52
66486;BME280;53303;47.476;8.084;2023-07-24T02:47:22;94650.09;;;23.94;49.50
66486;BME280;53303;47.476;8.084;2023-07-24T02:49:50;94649.69;;;23.90;49.38
66486;BME280;53303;47.476;8.084;2023-07-24T02:52:15;94638.19;;;23.93;49.46
66486;BME280;53303;47.476;8.084;2023-07-24T02:54:43;94637.63;;;23.87;49.40
66486;BME280;53303;47.476;8.084;2023-07-24T02:57:09;94647.88;;;23.92;49.41
66486;BME280;53303;47.476;8.084;2023-07-24T02:59:34;94625.41;;;23.90;49.57
66486;BME280;53303;47.476;8.084;2023-07-24T03:02:00;94627.59;;;23.92;49.47
66486;BME280;53303;47.476;8.084;2023-07-24T03:04:26;94622.41;;;23.88;49.36
66486;BME280;53303;47.476;8.084;2023-07-24T03:06:51;94627.59;;;23.92;49.38
66486;BME280;53303;47.476;8.084;2023-07-24T03:09:17;94625.94;;;23.89;49.53
66486;BME280;53303;47.476;8.084;2023-07-24T03:11:42;94629.28;;;23.87;49.56
66486;BME280;53303;47.476;8.084;2023-07-24T03:14:08;94627.97;;;23.88;49.36
66486;BME280;53303;47.476;8.084;2023-07-24T03:16:33;94624.44;;;23.88;49.34
66486;BME280;53303;47.476;8.084;2023-07-24T03:18:58;94620.72;;;23.85;49.35
66486;BME280;53303;47.476;8.084;2023-07-24T03:21:24;94627.97;;;23.88;49.44
66486;BME280;53303;47.476;8.084;2023-07-24T03:23:49;94620.56;;;23.91;49.27
66486;BME280;53303;47.476;8.084;2023-07-24T03:26:16;94620.56;;;23.91;49.34
66486;BME280;53303;47.476;8.084;2023-07-24T03:28:41;94618.31;;;23.89;49.39
66486;BME280;53303;47.476;8.084;2023-07-24T03:31:09;94614.25;;;23.90;49.33
66486;BME280;53303;47.476;8.084;2023-07-24T03:33:34;94616.28;;;23.90;49.65
66486;BME280;53303;47.476;8.084;2023-07-24T03:36:02;94619.81;;;23.90;49.46
66486;BME280;53303;47.476;8.084;2023-07-24T03:38:28;94619.81;;;23.90;49.63
66486;BME280;53303;47.476;8.084;2023-07-24T03:40:53;94607.00;;;23.87;49.56
66486;BME280;53303;47.476;8.084;2023-07-24T03:43:21;94615.16;;;23.85;49.37
66486;BME280;53303;47.476;8.084;2023-07-24T03:45:47;94613.13;;;23.86;49.45
66486;BME280;53303;47.476;8.084;2023-07-24T03:48:12;94621.09;;;23.89;49.40
66486;BME280;53303;47.476;8.084;2023-07-24T03:50:38;94623.16;;;23.89;49.54
66486;BME280;53303;47.476;8.084;2023-07-24T03:53:03;94632.25;;;23.89;49.76
66486;BME280;53303;47.476;8.084;2023-07-24T03:55:30;94631.50;;;23.89;49.45
66486;BME280;53303;47.476;8.084;2023-07-24T03:57:56;94635.94;;;23.84;49.56
66486;BME280;53303;47.476;8.084;2023-07-24T04:00:21;94650.81;;;23.87;49.76
66486;BME280;53303;47.476;8.084;2023-07-24T04:02:47;94664.94;;;23.89;49.74
66486;BME280;53303;47.476;8.084;2023-07-24T04:05:12;94689.25;;;23.88;49.68
66486;BME280;53303;47.476;8.084;2023-07-24T04:07:38;94715.09;;;23.89;49.81
66486;BME280;53303;47.476;8.084;2023-07-24T04:10:04;94733.28;;;23.90;49.52
66486;BME280;53303;47.476;8.084;2023-07-24T04:12:30;94756.88;;;23.89;49.55
66486;BME280;53303;47.476;8.084;2023-07-24T04:14:55;94802.00;;;23.87;49.76
66486;BME280;53303;47.476;8.084;2023-07-24T04:17:21;94820.19;;;23.88;49.92
66486;BME280;53303;47.476;8.084;2023-07-24T04:19:46;94871.84;;;23.89;49.76
66486;BME280;53303;47.476;8.084;2023-07-24T04:22:11;94911.41;;;23.88;50.03
66486;BME280;53303;47.476;8.084;2023-07-24T04:24:37;94927.72;;;23.84;50.00
66486;BME280;53303;47.476;8.084;2023-07-24T04:27:02;94974.00;;;23.87;50.03
66486;BME280;53303;47.476;8.084;2023-07-24T04:29:28;94917.44;;;23.79;49.87
66486;BME280;53303;47.476;8.084;2023-07-24T04:31:53;94892.78;;;23.83;49.94
66486;BME280;53303;47.476;8.084;2023-07-24T04:34:19;94969.72;;;23.86;50.16
66486;BME280;53303;47.476;8.084;2023-07-24T04:36:46;94927.94;;;23.86;50.05
66486;BME280;53303;47.476;8.084;2023-07-24T04:39:12;94957.63;;;23.83;49.80
66486;BME280;53303;47.476;8.084;2023-07-24T04:41:39;94953.00;;;23.86;49.79
66486;BME280;53303;47.476;8.084;2023-07-24T04:44:05;94949.47;;;23.85;49.95
66486;BME280;53303;47.476;8.084;2023-07-24T04:46:32;94948.72;;;23.85;49.61
66486;BME280;53303;47.476;8.084;2023-07-24T04:48:58;94918.81;;;23.85;50.00
66486;BME280;53303;47.476;8.084;2023-07-24T04:51:25;94905.44;;;23.84;49.62
66486;BME280;53303;47.476;8.084;2023-07-24T04:53:51;94872.34;;;23.80;49.40
66486;BME280;53303;47.476;8.084;2023-07-24T04:56:16;94904.69;;;23.83;49.43
66486;BME280;53303;47.476;8.084;2023-07-24T04:58:42;94886.53;;;23.69;49.15
66486;BME280;53303;47.476;8.084;2023-07-24T05:01:07;94884.97;;;23.81;49.07
66486;BME280;53303;47.476;8.084;2023-07-24T05:03:35;94865.06;;;23.77;49.27
66486;BME280;53303;47.476;8.084;2023-07-24T05:06:00;94851.78;;;23.83;49.31
66486;BME280;53303;47.476;8.084;2023-07-24T05:08:25;94828.72;;;23.83;49.37
66486;BME280;53303;47.476;8.084;2023-07-24T05:10:57;94793.03;;;23.81;49.10
66486;BME280;53303;47.476;8.084;2023-07-24T05:13:24;94778.38;;;23.81;48.92
66486;BME280;53303;47.476;8.084;2023-07-24T05:15:49;94788.97;;;23.82;49.06
66486;BME280;53303;47.476;8.084;2023-07-24T05:18:15;94757.69;;;23.76;48.88
66486;BME280;53303;47.476;8.084;2023-07-24T05:20:47;94747.72;;;23.81;49.35
66486;BME280;53303;47.476;8.084;2023-07-24T05:23:14;94742.91;;;23.81;49.19
66486;BME280;53303;47.476;8.084;2023-07-24T05:25:40;94736.53;;;23.73;49.21
66486;BME280;53303;47.476;8.084;2023-07-24T05:28:06;94726.69;;;23.72;49.14
66486;BME280;53303;47.476;8.084;2023-07-24T05:30:32;94726.19;;;23.81;49.01
66486;BME280;53303;47.476;8.084;2023-07-24T05:32:58;94714.09;;;23.79;49.02
66486;BME280;53303;47.476;8.084;2023-07-24T05:35:23;94694.75;;;23.73;48.94
66486;BME280;53303;47.476;8.084;2023-07-24T05:37:48;94706.69;;;23.81;49.13
66486;BME280;53303;47.476;8.084;2023-07-24T05:40:16;94695.53;;;23.81;49.28
66486;BME280;53303;47.476;8.084;2023-07-24T05:42:41;94690.50;;;23.80;49.44
66486;BME280;53303;47.476;8.084;2023-07-24T05:45:09;94674.72;;;23.74;49.37
66486;BME280;53303;47.476;8.084;2023-07-24T05:47:38;94678.81;;;23.81;49.39
66486;BME280;53303;47.476;8.084;2023-07-24T05:50:04;94653.34;;;23.77;49.29
66486;BME280;53303;47.476;8.084;2023-07-24T05:52:29;94653.16;;;23.75;49.35
66486;BME280;53303;47.476;8.084;2023-07-24T05:54:55;94643.94;;;23.80;49.58
66486;BME280;53303;47.476;8.084;2023-07-24T05:57:20;94643.94;;;23.80;49.30
66486;BME280;53303;47.476;8.084;2023-07-24T05:59:45;94660.63;;;23.80;49.48
66486;BME280;53303;47.476;8.084;2023-07-24T06:02:17;94657.22;;;23.74;49.54
66486;BME280;53303;47.476;8.084;2023-07-24T06:04:45;94644.53;;;23.57;49.36
66486;BME280;53303;47.476;8.084;2023-07-24T06:07:11;94672.53;;;23.81;49.61
66486;BME280;53303;47.476;8.084;2023-07-24T06:09:40;94654.09;;;23.77;49.61
66486;BME280;53303;47.476;8.084;2023-07-24T06:12:06;94654.84;;;23.78;49.68
66486;BME280;53303;47.476;8.084;2023-07-24T06:14:32;94669.19;;;23.82;49.61
66486;BME280;53303;47.476;8.084;2023-07-24T06:16:57;94670.47;;;23.81;49.63
66486;BME280;53303;47.476;8.084;2023-07-24T06:19:22;94659.47;;;23.75;49.50
66486;BME280;53303;47.476;8.084;2023-07-24T06:21:48;94667.13;;;23.83;49.69
66486;BME280;53303;47.476;8.084;2023-07-24T06:24:13;94664.16;;;23.81;49.53
66486;BME280;53303;47.476;8.084;2023-07-24T06:26:39;94656.31;;;23.79;49.67
66486;BME280;53303;47.476;8.084;2023-07-24T06:29:05;94659.66;;;23.77;50.00
66486;BME280;53303;47.476;8.084;2023-07-24T06:31:30;94675.09;;;23.79;50.05
66486;BME280;53303;47.476;8.084;2023-07-24T06:33:56;94681.94;;;23.77;50.59
66486;BME280;53303;47.476;8.084;2023-07-24T06:36:23;94731.63;;;23.87;50.59
66486;BME280;53303;47.476;8.084;2023-07-24T06:38:49;94744.78;;;23.86;51.04
66486;BME280;53303;47.476;8.084;2023-07-24T06:41:14;94744.59;;;23.84;51.51
66486;BME280;53303;47.476;8.084;2023-07-24T06:43:45;94758.38;;;23.90;51.88
66486;BME280;53303;47.476;8.084;2023-07-24T06:46:10;94770.28;;;23.90;51.80
66486;BME280;53303;47.476;8.084;2023-07-24T06:48:35;94781.19;;;23.88;52.22
66486;BME280;53303;47.476;8.084;2023-07-24T06:51:01;94767.25;;;23.88;52.19
66486;BME280;53303;47.476;8.084;2023-07-24T06:53:26;94753.69;;;23.85;52.58
66486;BME280;53303;47.476;8.084;2023-07-24T06:55:55;94747.56;;;23.86;52.70
66486;BME280;53303;47.476;8.084;2023-07-24T06:58:20;94739.56;;;23.83;52.60
66486;BME280;53303;47.476;8.084;2023-07-24T07:00:45;94730.06;;;23.78;52.48
66486;BME280;53303;47.476;8.084;2023-07-24T07:03:11;94742.53;;;23.85;52.45
66486;BME280;53303;47.476;8.084;2023-07-24T07:05:36;94743.31;;;23.85;52.48
66486;BME280;53303;47.476;8.084;2023-07-24T07:08:02;94742.16;;;23.81;52.08
66486;BME280;53303;47.476;8.084;2023-07-24T07:10:29;94722.13;;;23.82;52.13
66486;BME280;53303;47.476;8.084;2023-07-24T07:12:55;94729.94;;;23.84;52.30
66486;BME280;53303;47.476;8.084;2023-07-24T07:15:21;94724.34;;;23.84;52.19
66486;BME280;53303;47.476;8.084;2023-07-24T07:17:46;94730.66;;;23.84;52.38
66486;BME280;53303;47.476;8.084;2023-07-24T07:20:11;94723.63;;;23.83;52.88
66486;BME280;53303;47.476;8.084;2023-07-24T07:22:37;94720.63;;;23.81;52.91
66486;BME280;53303;47.476;8.084;2023-07-24T07:25:03;94721.03;;;23.85;53.11
66486;BME280;53303;47.476;8.084;2023-07-24T07:27:28;94722.31;;;23.84;53.15
66486;BME280;53303;47.476;8.084;2023-07-24T07:29:54;94717.28;;;23.83;53.41
66486;BME280;53303;47.476;8.084;2023-07-24T07:32:19;94711.16;;;23.84;53.72
66486;BME280;53303;47.476;8.084;2023-07-24T07:34:47;94704.13;;;23.83;53.72
66486;BME280;53303;47.476;8.084;2023-07-24T07:37:12;94713.22;;;23.84;53.83
66486;BME280;53303;47.476;8.084;2023-07-24T07:39:38;94709.13;;;23.85;54.01
66486;BME280;53303;47.476;8.084;2023-07-24T07:42:03;94708.38;;;23.84;53.77
66486;BME280;53303;47.476;8.084;2023-07-24T07:44:29;94710.44;;;23.84;54.16
66486;BME280;53303;47.476;8.084;2023-07-24T07:46:54;94690.19;;;23.83;53.83
66486;BME280;53303;47.476;8.084;2023-07-24T07:49:20;94674.34;;;23.78;54.10
66486;BME280;53303;47.476;8.084;2023-07-24T07:51:45;94674.94;;;23.84;54.14
66486;BME280;53303;47.476;8.084;2023-07-24T07:54:10;94679.78;;;23.84;54.08
66486;BME280;53303;47.476;8.084;2023-07-24T07:56:36;94673.78;;;23.80;53.84
66486;BME280;53303;47.476;8.084;2023-07-24T07:59:01;94682.03;;;23.85;54.18
66486;BME280;53303;47.476;8.084;2023-07-24T08:01:26;94670.13;;;23.85;54.23
66486;BME280;53303;47.476;8.084;2023-07-24T08:03:52;94661.03;;;23.84;53.97
66486;BME280;53303;47.476;8.084;2023-07-24T08:06:17;94646.16;;;23.82;53.76
66486;BME280;53303;47.476;8.084;2023-07-24T08:08:46;94659.72;;;23.85;53.98
66486;BME280;53303;47.476;8.084;2023-07-24T08:11:11;94654.63;;;23.76;53.95
66486;BME280;53303;47.476;8.084;2023-07-24T08:13:37;94655.63;;;23.86;53.81
66486;BME280;53303;47.476;8.084;2023-07-24T08:16:02;94645.19;;;23.79;53.48
66486;BME280;53303;47.476;8.084;2023-07-24T08:18:31;94638.53;;;23.82;53.33
66486;BME280;53303;47.476;8.084;2023-07-24T08:20:56;94652.31;;;23.88;53.60
66486;BME280;53303;47.476;8.084;2023-07-24T08:23:21;94636.50;;;23.83;53.39
66486;BME280;53303;47.476;8.084;2023-07-24T08:25:53;94636.91;;;23.87;53.19
66486;BME280;53303;47.476;8.084;2023-07-24T08:28:21;94635.59;;;23.88;53.24
66486;BME280;53303;47.476;8.084;2023-07-24T08:30:56;94621.66;;;23.88;53.12
66486;BME280;53303;47.476;8.084;2023-07-24T08:33:23;94629.28;;;23.87;53.33
66486;BME280;53303;47.476;8.084;2023-07-24T08:36:00;94623.72;;;23.87;53.13
66486;BME280;53303;47.476;8.084;2023-07-24T08:38:26;94614.03;;;23.88;53.08
66486;BME280;53303;47.476;8.084;2023-07-24T08:41:12;94599.19;;;23.86;53.11
66486;BME280;53303;47.476;8.084;2023-07-24T08:43:42;94600.09;;;23.88;53.13
66486;BME280;53303;47.476;8.084;2023-07-24T08:46:08;94589.91;;;23.91;52.88
66486;BME280;53303;47.476;8.084;2023-07-24T08:48:43;94582.84;;;23.90;53.03
66486;BME280;53303;47.476;8.084;2023-07-24T08:51:12;94582.84;;;23.90;52.76
66486;BME280;53303;47.476;8.084;2023-07-24T08:53:40;94581.91;;;23.87;52.71
66486;BME280;53303;47.476;8.084;2023-07-24T08:56:07;94583.78;;;23.92;52.90
66486;BME280;53303;47.476;8.084;2023-07-24T08:58:34;94569.84;;;23.92;53.04
66486;BME280;53303;47.476;8.084;2023-07-24T09:01:00;94577.81;;;23.88;52.87
66486;BME280;53303;47.476;8.084;2023-07-24T09:03:26;94574.09;;;23.86;52.66
66486;BME280;53303;47.476;8.084;2023-07-24T09:05:52;94607.56;;;23.93;52.71
66486;BME280;53303;47.476;8.084;2023-07-24T09:08:39;94621.09;;;23.89;52.72
66486;BME280;53303;47.476;8.084;2023-07-24T09:11:09;94608.47;;;23.88;52.72
66486;BME280;53303;47.476;8.084;2023-07-24T09:13:37;94622.25;;;23.94;52.82
66486;BME280;53303;47.476;8.084;2023-07-24T09:16:03;94604.75;;;23.93;52.53
66486;BME280;53303;47.476;8.084;2023-07-24T09:18:43;94604.38;;;23.89;52.40
66486;BME280;53303;47.476;8.084;2023-07-24T09:21:09;94615.16;;;23.93;52.38
66486;BME280;53303;47.476;8.084;2023-07-24T09:23:37;94618.88;;;23.95;52.44
66486;BME280;53303;47.476;8.084;2023-07-24T09:26:06;94630.25;;;23.98;52.09
66486;BME280;53303;47.476;8.084;2023-07-24T09:28:33;94628.56;;;23.94;52.11
66486;BME280;53303;47.476;8.084;2023-07-24T09:30:58;94629.47;;;23.97;52.28
66486;BME280;53303;47.476;8.084;2023-07-24T09:33:35;94619.84;;;23.98;52.63
66486;BME280;53303;47.476;8.084;2023-07-24T09:36:02;94614.63;;;23.87;52.65
66486;BME280;53303;47.476;8.084;2023-07-24T09:38:28;94625.78;;;23.94;52.44
66486;BME280;53303;47.476;8.084;2023-07-24T09:40:56;94635.25;;;23.99;52.31
66486;BME280;53303;47.476;8.084;2023-07-24T09:43:24;94637.28;;;23.99;52.28
66486;BME280;53303;47.476;8.084;2023-07-24T09:45:51;94644.38;;;24.00;52.12
66486;BME280;53303;47.476;8.084;2023-07-24T09:48:18;94658.28;;;24.00;51.97
66486;BME280;53303;47.476;8.084;2023-07-24T09:50:48;94655.31;;;23.98;51.82
66486;BME280;53303;47.476;8.084;2023-07-24T09:53:49;94665.69;;;23.97;52.01
66486;BME280;53303;47.476;8.084;2023-07-24T09:56:19;94665.69;;;23.97;52.00
66486;BME280;53303;47.476;8.084;2023-07-24T09:58:46;94662.72;;;23.95;51.92
66486;BME280;53303;47.476;8.084;2023-07-24T10:01:14;94676.84;;;23.97;52.06
66486;BME280;53303;47.476;8.084;2023-07-24T10:03:49;94671.47;;;23.99;52.12
66486;BME280;53303;47.476;8.084;2023-07-24T10:06:23;94678.16;;;23.96;51.95
66486;BME280;53303;47.476;8.084;2023-07-24T10:08:51;94688.94;;;24.00;52.04
66486;BME280;53303;47.476;8.084;2023-07-24T10:11:18;94664.41;;;23.98;51.87
66486;BME280;53303;47.476;8.084;2023-07-24T10:13:43;94633.94;;;24.00;51.85
66486;BME280;53303;47.476;8.084;2023-07-24T10:16:09;94629.09;;;23.85;51.99
66486;BME280;53303;47.476;8.084;2023-07-24T10:18:44;94651.22;;;23.99;52.05
66486;BME280;53303;47.476;8.084;2023-07-24T10:21:11;94681.88;;;23.99;51.97
66486;BME280;53303;47.476;8.084;2023-07-24T10:23:41;94718.84;;;23.99;52.02
66486;BME280;53303;47.476;8.084;2023-07-24T10:26:07;94781.44;;;23.98;51.67
66486;BME280;53303;47.476;8.084;2023-07-24T10:28:40;94791.09;;;23.97;51.91
66486;BME280;53303;47.476;8.084;2023-07-24T10:31:23;94764.53;;;23.96;51.74
66486;BME280;53303;47.476;8.084;2023-07-24T10:33:49;94752.84;;;23.98;51.78
66486;BME280;53303;47.476;8.084;2023-07-24T10:36:18;94751.88;;;23.95;52.08
66486;BME280;53303;47.476;8.084;2023-07-24T10:38:46;94771.78;;;23.99;51.92
66486;BME280;53303;47.476;8.084;2023-07-24T10:41:11;94802.78;;;23.95;51.94
66486;BME280;53303;47.476;8.084;2023-07-24T10:43:51;94837.72;;;23.97;51.92
66486;BME280;53303;47.476;8.084;2023-07-24T10:46:18;94779.22;;;23.97;51.80
66486;BME280;53303;47.476;8.084;2023-07-24T10:48:49;94758.53;;;23.84;51.50
66486;BME280;53303;47.476;8.084;2023-07-24T10:51:18;94745.03;;;23.96;51.63
66486;BME280;53303;47.476;8.084;2023-07-24T10:53:48;94724.75;;;23.95;51.89
66486;BME280;53303;47.476;8.084;2023-07-24T10:56:14;94709.91;;;23.93;51.82
66486;BME280;53303;47.476;8.084;2023-07-24T10:58:40;94715.28;;;23.91;51.82
66486;BME280;53303;47.476;8.084;2023-07-24T11:01:07;94696.72;;;23.93;51.77
66486;BME280;53303;47.476;8.084;2023-07-24T11:03:35;94708.25;;;23.98;52.03
66486;BME280;53303;47.476;8.084;2023-07-24T11:06:01;94713.06;;;23.97;51.75
66486;BME280;53303;47.476;8.084;2023-07-24T11:08:27;94703.59;;;23.92;52.18
66486;BME280;53303;47.476;8.084;2023-07-24T11:10:55;94718.84;;;23.99;51.72
66486;BME280;53303;47.476;8.084;2023-07-24T11:13:22;94714.94;;;23.94;51.90
66486;BME280;53303;47.476;8.084;2023-07-24T11:15:49;94714.75;;;24.00;52.15
66486;BME280;53303;47.476;8.084;2023-07-24T11:18:15;94697.47;;;23.94;51.90
66486;BME280;53303;47.476;8.084;2023-07-24T11:20:52;94679.09;;;23.99;51.86
66486;BME280;53303;47.476;8.084;2023-07-24T11:23:18;94685.41;;;23.99;52.16
66486;BME280;53303;47.476;8.084;2023-07-24T11:25:44;94697.13;;;23.98;52.04
66486;BME280;53303;47.476;8.084;2023-07-24T11:28:13;94699.91;;;23.98;51.96
66486;BME280;53303;47.476;8.084;2023-07-24T11:30:39;94684.84;;;24.01;51.84
66486;BME280;53303;47.476;8.084;2023-07-24T11:33:08;94674.25;;;23.99;51.96
66486;BME280;53303;47.476;8.084;2023-07-24T11:35:39;94656.06;;;23.98;52.09
66486;BME280;53303;47.476;8.084;2023-07-24T11:38:06;94650.66;;;24.00;51.97
66486;BME280;53303;47.476;8.084;2023-07-24T11:40:35;94628.75;;;23.97;52.10
66486;BME280;53303;47.476;8.084;2023-07-24T11:43:03;94638.25;;;24.01;52.07
66486;BME280;53303;47.476;8.084;2023-07-24T11:45:29;94641.94;;;23.96;51.84
66486;BME280;53303;47.476;8.084;2023-07-24T11:47:55;94643.59;;;23.99;52.11
66486;BME280;53303;47.476;8.084;2023-07-24T11:50:22;94646.78;;;24.03;52.03
66486;BME280;53303;47.476;8.084;2023-07-24T11:52:50;94653.09;;;24.04;51.93
66486;BME280;53303;47.476;8.084;2023-07-24T11:55:30;94640.44;;;24.03;51.65
66486;BME280;53303;47.476;8.084;2023-07-24T11:58:01;94646.25;;;24.05;51.84
66486;BME280;53303;47.476;8.084;2023-07-24T12:00:27;94639.16;;;24.04;51.94
66486;BME280;53303;47.476;8.084;2023-07-24T12:02:58;94636.38;;;24.04;51.77
66486;BME280;53303;47.476;8.084;2023-07-24T12:05:24;94636.56;;;24.06;52.01
66486;BME280;53303;47.476;8.084;2023-07-24T12:07:49;94633.78;;;24.06;51.62
66486;BME280;53303;47.476;8.084;2023-07-24T12:10:25;94639.34;;;24.06;51.83
66486;BME280;53303;47.476;8.084;2023-07-24T12:12:57;94636.56;;;24.06;51.80
66486;BME280;53303;47.476;8.084;2023-07-24T12:15:24;94625.97;;;24.04;51.80
66486;BME280;53303;47.476;8.084;2023-07-24T12:17:52;94623.38;;;24.06;51.74
66486;BME280;53303;47.476;8.084;2023-07-24T12:20:17;94603.50;;;24.02;51.90
66486;BME280;53303;47.476;8.084;2023-07-24T12:22:43;94598.28;;;24.06;52.03
66486;BME280;53303;47.476;8.084;2023-07-24T12:25:08;94584.94;;;24.05;52.02
66486;BME280;53303;47.476;8.084;2023-07-24T12:27:34;94570.59;;;24.01;52.27
66486;BME280;53303;47.476;8.084;2023-07-24T12:30:00;94586.59;;;24.08;52.23
66486;BME280;53303;47.476;8.084;2023-07-24T12:32:25;94584.72;;;24.03;52.19
66486;BME280;53303;47.476;8.084;2023-07-24T12:34:59;94579.50;;;23.99;51.87
66486;BME280;53303;47.476;8.084;2023-07-24T12:37:26;94594.03;;;24.05;51.86
66486;BME280;53303;47.476;8.084;2023-07-24T12:39:54;94581.56;;;23.99;51.86
66486;BME280;53303;47.476;8.084;2023-07-24T12:42:22;94590.28;;;24.03;52.01
66486;BME280;53303;47.476;8.084;2023-07-24T12:44:48;94583.63;;;24.06;52.21
66486;BME280;53303;47.476;8.084;2023-07-24T12:47:16;94576.94;;;24.09;52.34
66486;BME280;53303;47.476;8.084;2023-07-24T12:49:41;94577.69;;;24.09;52.01
66486;BME280;53303;47.476;8.084;2023-07-24T12:52:11;94569.88;;;24.08;51.91
66486;BME280;53303;47.476;8.084;2023-07-24T12:54:39;94568.22;;;24.05;52.43
66486;BME280;53303;47.476;8.084;2023-07-24T12:57:07;94558.34;;;24.04;52.01
66486;BME280;53303;47.476;8.084;2023-07-24T12:59:35;94564.84;;;24.06;51.95
66486;BME280;53303;47.476;8.084;2023-07-24T13:02:00;94573.41;;;24.08;52.06